SKBGSKBO

Guest
Details From SKBG - Palonegro
To SKBO - Eldorado Intl
Flight Number -
Tags Generated
Created
Modified
Stats Distance 157 nm / 291 km
Max Altitude 0 ft / 0 m
Waypoints 2
Social Downloads 5
Likes 0
Share VATSIM

Download

Looking for another format? Having issues loading an existing format? Contact us
Advertisement - Login to hide

Notes

Generated

Route

SKBG SKBO

ID Type Via Altitude Latitude Longitude Leg Dist Tot Dist Heading (true) Name
O SKBG APT - 0 ft / 0 m 7.13606˚ -73.18839˚ - 0 nm - -
O SKBO APT - 0 ft / 0 m 4.71050˚ -74.16917˚ 157 nm 157 nm 202° / 202° -

Altitude Profile

Advertisement - Login to hide

SKBG

Details ICAO SKBG (BGA)
Name PALONEGRO
Region Colombia
Timezone America/Bogota (UTC-5.0)
Stats Elevation 3,896 ft / 1,188 m (AMSL)
Location 7.126500° -73.184764°
Runways 1
Magnetic Variation 8.232° W

METAR

SKBG 161500Z 32004KT 9999 FEW010 25/17 A3003 WS R35

Decode

TAF

TAF SKBG 161100Z 1612/1712 17006KT 9999 FEW017 SCT090 BECMG 1616/1618 32007KT TX27/1618Z TN18/1711Z

Decode

Departure Runways

ID Width Length Bearing (true) Bearing (mag) Surface Threshold Offset Overrun Length
16 164 ft / 50 m 7,452 ft / 2,271 m 159.37° 167.60° Asphalt 0 ft / 0 m 0 ft / 0 m
34 164 ft / 50 m 7,452 ft / 2,271 m 339.37° 347.60° Asphalt 0 ft / 0 m 0 ft / 0 m

SKBO

Details ICAO SKBO (BOG)
Name Bogota - El Dorado Intl
Region Colombia
Timezone America/Bogota (UTC-5.0)
Stats Elevation 8,361 ft / 2,548 m (AMSL)
Location 4.701594° -74.146946°
Runways 2
Magnetic Variation 7.268° W

METAR

SKBO 161500Z 34004KT 9999 FEW023 18/09 A3035

Decode

TAF

TAF SKBO 161100Z 1612/1712 04006KT 9999 FEW020 SCT090 TEMPO 1615/1621 14010KT TX20/1618Z TN05/1711Z

Decode

Destination Runways

ID Width Length Bearing (true) Bearing (mag) Surface Threshold Offset Overrun Length
13L 148 ft / 45 m 12,482 ft / 3,804 m 127.21° 134.48° Asphalt 0 ft / 0 m 0 ft / 0 m
13R 148 ft / 45 m 12,494 ft / 3,808 m 127.23° 134.50° Asphalt 0 ft / 0 m 200 ft / 61 m
31L 148 ft / 45 m 12,494 ft / 3,808 m 307.23° 314.50° Asphalt 0 ft / 0 m 190 ft / 58 m
31R 148 ft / 45 m 12,482 ft / 3,804 m 307.21° 314.48° Asphalt 0 ft / 0 m 0 ft / 0 m

Approach Navaids

Runway Type Ident Frequency Range Bearing (true) Bearing (mag) Slope Elevation
13L Localiser IEDR 111.30 MHz 18 nm / 33 km 127.21° 134.48° - 8,355 ft / 2,547 m (AMSL)
13L Glidescope IEDR 111.30 MHz 10 nm / 19 km 127.21° 134.48° 3.00° 8,357 ft / 2,547 m (AMSL)
13L DME IEDR 111.30 MHz 18 nm / 33 km - - - 8,361 ft / 2,548 m (AMSL)
13R Localiser IADO 110.70 MHz 18 nm / 33 km 127.23° 134.50° - 8,355 ft / 2,547 m (AMSL)
13R Glidescope IADO 110.70 MHz 10 nm / 19 km 127.23° 134.50° 3.00° 8,361 ft / 2,548 m (AMSL)
13R DME IADO 110.70 MHz 18 nm / 33 km - - - 8,361 ft / 2,548 m (AMSL)

Popular Alternatives